Terminal Aerodrome Forecast
Issued by NWS

Home | Current Version | Previous Version | Text Only | Print | Product List | Glossary On
Versions: 1 2 3 4 5 6 7 8 9 10 11 12 13 14 15 16 17 18 19 20 21 22 23 24 25 26 27 28 29
000
FTUS42 KJAX 210540
TAFCRG
TAF
KCRG 210540Z 2106/2206 21005KT P6SM BKN035
     FM210730 23006KT P6SM BKN020
     FM211230 30008KT P6SM SCT015 SCT250
     FM211400 35007KT P6SM FEW030 BKN250
     FM211930 05006KT P6SM SCT250
     FM220000 10003KT P6SM SKC=

USA.gov is the U.S. government's official web portal to all federal, state and local government web resources and services.